Ely Municipal Airport Ely US
ICAO: KELO
IATA: ELO
Category: Medium
Scheduled Services: No

Elevation: 1456 ft
TransAlt. 18000 ft.

Airport Communications:
AWOS 3:132.025
PRINCETON RDO:109.6
CTAF/UNICOM:122.8

KELO Zoom In..

If you have problems with the map follow the link
https://www.worldairports.se/pages/airport.php?
ICAO=KELO

Runways:

(A) RW 12 length 5596 ft width 100 ft
---- / hdg 120

(B) RW 30 length 5596 ft width 100 ft
---- / hdg 300

Location; KELO
Day. 21 / Time. 18.15 Zulu
* Altimeter: 29.91
* Temperature: 06° c. 42.8°f.
* Wind from: 240° Speed 07 kn with Gusts up to 16 kn.
Dewpoint: -07° c.
Visibility: 10 Statute Miles.
Clouds: Clear (automated report).

KELO 211815Z AUTO 24007G16KT 210V270 10SM CLR 06/M07 A2991 RMK AO2


Wind From 240°
Speed 07 kn.

 
 
jpsmedia.com for Web Design worldairports.se 2018   terms of use